Time;durP1;ratioP1;P1;durP2;ratioP2;P2;SDS_P1;SDS_P2;PMS_P1;PMS_P2;Temp;Humidity;BMP_temperature;BMP_pressure;BME280_temperature;BME280_humidity;BME280_pressure;Samples;Min_cycle;Max_cycle;Signal;HPM_P1;HPM_P2
2021/05/25 00:00:00;;;;;;;;;;;9.40;99.90;;;;;;10356352;28;19921;-53
2021/05/25 00:05:01;;;;;;;;;;;9.30;99.90;;;;;;10353865;28;20012;-52
2021/05/25 00:10:02;;;;;;;;;;;9.30;99.90;;;;;;10358432;28;19917;-53
2021/05/25 00:15:05;;;;;;;;;;;9.10;99.90;;;;;;10353864;28;19921;-52
2021/05/25 00:20:07;;;;;;;;;;;9.10;99.90;;;;;;10351207;28;19925;-53
2021/05/25 00:25:10;;;;;;;;;;;9.00;99.90;;;;;;10352396;28;19914;-52
2021/05/25 00:30:11;;;;;;;;;;;9.10;99.90;;;;;;10356082;28;19956;-52
2021/05/25 00:35:13;;;;;;;;;;;9.10;99.90;;;;;;10354395;28;19959;-52
2021/05/25 00:40:14;;;;;;;;;;;9.00;99.90;;;;;;10355983;28;19936;-53
2021/05/25 00:45:15;;;;;;;;;;;9.00;99.90;;;;;;10359501;28;19936;-53
2021/05/25 00:50:21;;;;;;;;;;;9.00;99.90;;;;;;10349275;28;19921;-50
2021/05/25 00:55:27;;;;;;;;;;;9.00;99.90;;;;;;10351305;28;19932;-50
2021/05/25 01:00:36;;;;;;;;;;;9.00;99.90;;;;;;10352950;28;19971;-50
2021/05/25 01:05:37;;;;;;;;;;;8.90;99.90;;;;;;10351368;28;19928;-50
2021/05/25 01:10:40;;;;;;;;;;;8.90;99.90;;;;;;10356853;28;19921;-50
2021/05/25 01:15:41;;;;;;;;;;;8.90;99.90;;;;;;10349638;28;19925;-50
2021/05/25 01:20:44;;;;;;;;;;;8.90;99.90;;;;;;10350790;28;19936;-53
2021/05/25 01:25:46;;;;;;;;;;;9.00;99.90;;;;;;10348287;28;20011;-52
2021/05/25 01:30:48;;;;;;;;;;;9.00;99.90;;;;;;10353275;28;19968;-53
2021/05/25 01:35:48;;;;;;;;;;;8.90;99.90;;;;;;10348705;28;20012;-53
2021/05/25 01:40:51;;;;;;;;;;;8.90;99.90;;;;;;10351426;28;19928;-53
2021/05/25 01:45:52;;;;;;;;;;;8.80;99.90;;;;;;10355508;28;19972;-52
2021/05/25 01:50:53;;;;;;;;;;;8.80;99.90;;;;;;10351004;28;19964;-53
2021/05/25 01:55:54;;;;;;;;;;;8.70;99.90;;;;;;10356995;28;19929;-53
2021/05/25 02:00:59;;;;;;;;;;;8.70;99.90;;;;;;10350630;28;20451;-52
2021/05/25 02:05:59;;;;;;;;;;;8.60;99.90;;;;;;10349880;28;20357;-53
2021/05/25 02:11:02;;;;;;;;;;;8.60;99.90;;;;;;10355741;28;19961;-52
2021/05/25 02:16:05;;;;;;;;;;;8.60;99.90;;;;;;10352906;28;20408;-52
2021/05/25 02:21:06;;;;;;;;;;;8.60;99.90;;;;;;10350049;28;20267;-52
2021/05/25 02:26:07;;;;;;;;;;;8.50;99.90;;;;;;10345149;28;19925;-53
2021/05/25 02:31:08;;;;;;;;;;;8.40;99.90;;;;;;10353740;28;20300;-53
2021/05/25 02:36:08;;;;;;;;;;;8.30;99.90;;;;;;10354305;28;19932;-52
2021/05/25 02:41:09;;;;;;;;;;;8.20;99.90;;;;;;10356379;28;20329;-52
2021/05/25 02:46:10;;;;;;;;;;;8.30;99.90;;;;;;10352600;28;19969;-50
2021/05/25 02:51:10;;;;;;;;;;;8.20;99.90;;;;;;10353082;28;19929;-50
2021/05/25 02:56:11;;;;;;;;;;;8.20;99.90;;;;;;10350029;28;20616;-50
2021/05/25 03:01:12;;;;;;;;;;;8.10;99.90;;;;;;10348581;28;19925;-52
2021/05/25 03:06:12;;;;;;;;;;;8.10;99.90;;;;;;10348551;28;19921;-52
2021/05/25 03:11:13;;;;;;;;;;;8.00;99.90;;;;;;10351285;28;19966;-52
2021/05/25 03:16:15;;;;;;;;;;;8.00;99.90;;;;;;10355784;28;19929;-52
2021/05/25 03:21:16;;;;;;;;;;;7.90;99.90;;;;;;10347753;28;19926;-50
2021/05/25 03:26:17;;;;;;;;;;;7.90;99.90;;;;;;10347670;28;19921;-52
2021/05/25 03:31:17;;;;;;;;;;;7.90;99.90;;;;;;10346750;28;19921;-50
2021/05/25 03:36:18;;;;;;;;;;;7.80;99.90;;;;;;10354255;28;19976;-50
2021/05/25 03:41:19;;;;;;;;;;;7.80;99.90;;;;;;10357463;28;20355;-50
2021/05/25 03:46:19;;;;;;;;;;;7.80;99.90;;;;;;10356833;28;19926;-50
2021/05/25 03:51:20;;;;;;;;;;;7.70;99.90;;;;;;10348983;28;19944;-50
2021/05/25 03:56:28;;;;;;;;;;;7.70;99.90;;;;;;10353623;28;20328;-50
2021/05/25 04:01:28;;;;;;;;;;;7.60;99.90;;;;;;10355364;28;19956;-50
2021/05/25 04:06:29;;;;;;;;;;;7.60;99.90;;;;;;10354064;28;19943;-50
2021/05/25 04:11:30;;;;;;;;;;;7.50;99.90;;;;;;10353443;28;20021;-50
2021/05/25 04:16:31;;;;;;;;;;;7.60;99.90;;;;;;10358136;28;19932;-50
2021/05/25 04:21:31;;;;;;;;;;;7.50;99.90;;;;;;10351192;28;20063;-50
2021/05/25 04:26:32;;;;;;;;;;;7.50;99.90;;;;;;10354163;28;19918;-49
2021/05/25 04:31:33;;;;;;;;;;;7.60;99.90;;;;;;10354685;28;20288;-50
2021/05/25 04:36:33;;;;;;;;;;;7.60;99.90;;;;;;10353549;28;20000;-50
2021/05/25 04:41:34;;;;;;;;;;;7.70;99.90;;;;;;10354808;28;19928;-50
2021/05/25 04:46:34;;;;;;;;;;;7.90;99.90;;;;;;10359263;28;19922;-50
2021/05/25 04:51:35;;;;;;;;;;;8.10;99.90;;;;;;10351232;28;19925;-50
2021/05/25 04:56:35;;;;;;;;;;;8.10;99.90;;;;;;10348858;28;19937;-50
2021/05/25 05:01:36;;;;;;;;;;;8.20;99.90;;;;;;10355144;28;20027;-50
2021/05/25 05:06:37;;;;;;;;;;;8.20;99.90;;;;;;10350534;28;20232;-50
2021/05/25 05:11:37;;;;;;;;;;;8.30;99.90;;;;;;10351726;28;19921;-50
2021/05/25 05:16:38;;;;;;;;;;;8.40;99.90;;;;;;10357151;28;20357;-53
2021/05/25 05:21:39;;;;;;;;;;;8.40;99.90;;;;;;10352517;28;19940;-53
2021/05/25 05:26:39;;;;;;;;;;;8.60;99.90;;;;;;10353149;28;19949;-53
2021/05/25 05:31:40;;;;;;;;;;;8.90;99.90;;;;;;10349059;28;19931;-53
2021/05/25 05:36:41;;;;;;;;;;;8.90;99.90;;;;;;10355363;28;19929;-52
2021/05/25 05:41:41;;;;;;;;;;;9.00;99.90;;;;;;10352630;28;19921;-50
2021/05/25 05:46:42;;;;;;;;;;;9.10;99.90;;;;;;10351617;28;19921;-53
2021/05/25 05:51:43;;;;;;;;;;;9.20;99.90;;;;;;10353169;28;20430;-52
2021/05/25 05:56:44;;;;;;;;;;;9.30;99.90;;;;;;10349414;28;19925;-52
2021/05/25 06:01:45;;;;;;;;;;;9.40;99.90;;;;;;10357396;28;19928;-52
2021/05/25 06:06:45;;;;;;;;;;;9.50;99.90;;;;;;10357405;28;20022;-53
2021/05/25 06:11:52;;;;;;;;;;;9.70;99.90;;;;;;10349837;28;20301;-52
2021/05/25 06:16:53;;;;;;;;;;;10.00;99.90;;;;;;10348604;28;19925;-53
2021/05/25 06:21:55;;;;;;;;;;;10.20;99.90;;;;;;10352876;28;20351;-53
2021/05/25 06:26:56;;;;;;;;;;;10.20;99.90;;;;;;10348373;28;19922;-52
2021/05/25 06:32:00;;;;;;;;;;;10.10;99.90;;;;;;10351958;28;20006;-53
2021/05/25 06:37:01;;;;;;;;;;;10.10;99.90;;;;;;10344941;28;19940;-52
2021/05/25 06:42:02;;;;;;;;;;;10.20;99.90;;;;;;10347816;28;19925;-53
2021/05/25 06:47:02;;;;;;;;;;;10.40;99.90;;;;;;10351222;28;19960;-53
2021/05/25 06:52:03;;;;;;;;;;;10.50;99.90;;;;;;10358247;28;19913;-53
2021/05/25 06:57:04;;;;;;;;;;;10.50;99.90;;;;;;10351909;28;19929;-52
2021/05/25 07:02:05;;;;;;;;;;;10.70;99.90;;;;;;10346904;28;19932;-52
2021/05/25 07:07:06;;;;;;;;;;;10.90;99.90;;;;;;10345417;28;19924;-52
2021/05/25 07:12:07;;;;;;;;;;;11.00;99.90;;;;;;10358961;28;20284;-52
2021/05/25 07:17:07;;;;;;;;;;;11.30;99.90;;;;;;10356672;28;19932;-53
2021/05/25 07:22:08;;;;;;;;;;;11.60;99.90;;;;;;10353368;28;19929;-53
2021/05/25 07:27:09;;;;;;;;;;;11.80;99.90;;;;;;10356320;28;20431;-52
2021/05/25 07:32:09;;;;;;;;;;;12.00;99.90;;;;;;10357551;28;20016;-53
2021/05/25 07:37:10;;;;;;;;;;;12.10;99.90;;;;;;10354904;28;20372;-52
2021/05/25 07:42:11;;;;;;;;;;;12.20;99.90;;;;;;10352383;28;20269;-53
2021/05/25 07:47:11;;;;;;;;;;;12.40;99.90;;;;;;10355031;28;19921;-52
2021/05/25 07:52:14;;;;;;;;;;;12.60;99.90;;;;;;10361111;28;19920;-50
2021/05/25 07:57:14;;;;;;;;;;;12.60;99.90;;;;;;10356262;28;19992;-50
2021/05/25 08:02:15;;;;;;;;;;;12.70;99.90;;;;;;10354197;28;20325;-50
2021/05/25 08:07:16;;;;;;;;;;;12.70;99.90;;;;;;10353733;28;21419;-50
2021/05/25 08:12:16;;;;;;;;;;;12.30;99.90;;;;;;10356964;28;20336;-50
2021/05/25 08:17:22;;;;;;;;;;;12.10;99.90;;;;;;10355108;28;20234;-50
2021/05/25 08:22:23;;;;;;;;;;;12.00;99.90;;;;;;10355570;28;20300;-50
2021/05/25 08:27:24;;;;;;;;;;;12.00;99.90;;;;;;10350215;28;19921;-50
2021/05/25 08:32:25;;;;;;;;;;;12.30;99.90;;;;;;10355378;28;19928;-50
2021/05/25 08:37:25;;;;;;;;;;;12.70;99.90;;;;;;10356150;28;20028;-50
2021/05/25 08:42:26;;;;;;;;;;;12.90;99.90;;;;;;10358873;28;20019;-50
2021/05/25 08:47:29;;;;;;;;;;;12.70;99.90;;;;;;10350772;28;20757;-50
2021/05/25 08:52:30;;;;;;;;;;;12.90;99.90;;;;;;10351648;28;19925;-50
2021/05/25 08:57:30;;;;;;;;;;;13.40;99.90;;;;;;10347775;28;19925;-50
2021/05/25 09:02:31;;;;;;;;;;;13.70;99.90;;;;;;10350643;28;19936;-51
2021/05/25 09:07:35;;;;;;;;;;;13.70;99.90;;;;;;10349933;28;19924;-50
2021/05/25 09:12:39;;;;;;;;;;;13.40;99.90;;;;;;10345373;28;19921;-51
2021/05/25 09:17:40;;;;;;;;;;;13.10;99.90;;;;;;10353228;28;20289;-50
2021/05/25 09:22:42;;;;;;;;;;;13.10;99.90;;;;;;10354680;28;19929;-50
2021/05/25 09:27:45;;;;;;;;;;;13.10;99.90;;;;;;10353720;28;20234;-50
2021/05/25 09:32:46;;;;;;;;;;;13.30;99.90;;;;;;10349368;28;20020;-50
2021/05/25 09:37:48;;;;;;;;;;;13.50;99.90;;;;;;10349456;28;19925;-50
2021/05/25 09:42:52;;;;;;;;;;;13.80;99.90;;;;;;10349851;28;19924;-50
2021/05/25 09:47:53;;;;;;;;;;;13.90;99.90;;;;;;10354031;28;20325;-51
2021/05/25 09:53:04;;;;;;;;;;;14.20;99.90;;;;;;10356266;28;19913;-50
2021/05/25 09:58:05;;;;;;;;;;;14.10;99.90;;;;;;10347326;28;20407;-50
2021/05/25 10:03:13;;;;;;;;;;;13.90;99.90;;;;;;10347903;28;19925;-50
2021/05/25 10:08:15;;;;;;;;;;;14.10;99.90;;;;;;10352162;28;19975;-51
2021/05/25 10:13:16;;;;;;;;;;;14.20;99.90;;;;;;10353227;28;20396;-51
2021/05/25 10:18:33;;;;;;;;;;;14.60;99.90;;;;;;10353138;28;19921;-50
2021/05/25 10:23:34;;;;;;;;;;;15.00;99.90;;;;;;10354173;28;20373;-51
2021/05/25 10:28:39;;;;;;;;;;;15.20;99.90;;;;;;10348619;28;20404;-50
2021/05/25 10:33:40;;;;;;;;;;;15.30;99.90;;;;;;10359974;28;19922;-51
2021/05/25 10:38:43;;;;;;;;;;;15.20;99.90;;;;;;10350551;28;20349;-51
2021/05/25 10:43:45;;;;;;;;;;;15.10;99.90;;;;;;10353082;28;19922;-51
2021/05/25 10:48:52;;;;;;;;;;;15.10;99.90;;;;;;10358683;28;19948;-51
2021/05/25 10:54:11;;;;;;;;;;;15.40;99.90;;;;;;10355878;28;19932;-51
2021/05/25 10:59:14;;;;;;;;;;;15.40;99.90;;;;;;10360905;28;20643;-51
2021/05/25 11:04:14;;;;;;;;;;;15.20;99.90;;;;;;10355852;28;19917;-50
2021/05/25 11:09:28;;;;;;;;;;;15.00;99.90;;;;;;10356885;28;19927;-50
2021/05/25 11:14:29;;;;;;;;;;;14.60;99.90;;;;;;10355254;28;20502;-50
2021/05/25 11:19:44;;;;;;;;;;;15.00;99.90;;;;;;10356080;28;19936;-50
2021/05/25 11:25:02;;;;;;;;;;;15.10;99.90;;;;;;10352579;28;19971;-51
2021/05/25 11:30:08;;;;;;;;;;;15.40;99.90;;;;;;10354250;28;19928;-50
2021/05/25 11:35:10;;;;;;;;;;;15.50;99.90;;;;;;10353913;28;19921;-51
2021/05/25 11:40:12;;;;;;;;;;;15.10;99.90;;;;;;10368795;28;19921;-51
2021/05/25 11:45:14;;;;;;;;;;;14.70;99.90;;;;;;10355119;28;19925;-50
2021/05/25 11:50:15;;;;;;;;;;;14.60;99.90;;;;;;10352527;28;20412;-50
2021/05/25 11:55:15;;;;;;;;;;;14.30;99.90;;;;;;10351691;28;19925;-50
2021/05/25 12:00:18;;;;;;;;;;;13.90;99.90;;;;;;10353681;28;20093;-50
2021/05/25 12:05:20;;;;;;;;;;;13.50;99.90;;;;;;10350616;28;19917;-50
2021/05/25 12:10:22;;;;;;;;;;;13.40;99.90;;;;;;10355991;28;19924;-50
2021/05/25 12:15:24;;;;;;;;;;;13.40;99.90;;;;;;10352872;28;19956;-50
2021/05/25 12:20:49;;;;;;;;;;;13.60;99.90;;;;;;10349290;28;19929;-50
2021/05/25 12:25:52;;;;;;;;;;;13.40;99.90;;;;;;10350527;28;19914;-50
2021/05/25 12:30:54;;;;;;;;;;;13.50;99.90;;;;;;10351820;28;19924;-50
2021/05/25 12:36:13;;;;;;;;;;;13.20;99.90;;;;;;10352969;28;19969;-50
2021/05/25 12:41:14;;;;;;;;;;;13.10;99.90;;;;;;10350834;28;20434;-50
2021/05/25 12:46:15;;;;;;;;;;;13.20;99.90;;;;;;10352908;28;19921;-50
2021/05/25 12:51:24;;;;;;;;;;;13.20;99.90;;;;;;10349879;28;19925;-50
2021/05/25 12:56:25;;;;;;;;;;;13.60;99.90;;;;;;10354849;28;19948;-51
2021/05/25 13:01:27;;;;;;;;;;;14.40;99.90;;;;;;10354519;28;19947;-50
2021/05/25 13:06:39;;;;;;;;;;;14.70;99.90;;;;;;10351490;28;20044;-50
2021/05/25 13:12:16;;;;;;;;;;;14.30;99.90;;;;;;10351679;28;19972;-50
2021/05/25 13:17:17;;;;;;;;;;;13.40;99.90;;;;;;10265678;28;20284;-50
2021/05/25 13:22:21;;;;;;;;;;;12.80;99.90;;;;;;10347614;28;19929;-50
2021/05/25 13:27:25;;;;;;;;;;;12.70;99.90;;;;;;10351246;28;19928;-51
2021/05/25 13:32:27;;;;;;;;;;;12.50;99.90;;;;;;10350739;28;20350;-51
2021/05/25 13:37:27;;;;;;;;;;;12.40;99.90;;;;;;10352898;28;20021;-51
2021/05/25 13:42:28;;;;;;;;;;;12.50;99.90;;;;;;10354413;28;20317;-51
2021/05/25 13:47:30;;;;;;;;;;;12.30;99.90;;;;;;10350774;28;21541;-51
2021/05/25 13:52:30;;;;;;;;;;;12.30;99.90;;;;;;10350969;28;19925;-51
2021/05/25 13:57:31;;;;;;;;;;;12.10;99.90;;;;;;10350617;28;19917;-51
2021/05/25 14:02:31;;;;;;;;;;;12.00;99.90;;;;;;10348304;28;20019;-51
2021/05/25 14:07:34;;;;;;;;;;;12.10;99.90;;;;;;10348915;28;19957;-51
2021/05/25 14:12:35;;;;;;;;;;;12.30;99.90;;;;;;10348975;28;20300;-53
2021/05/25 14:17:36;;;;;;;;;;;12.70;99.90;;;;;;10350681;28;19956;-50
2021/05/25 14:22:36;;;;;;;;;;;13.00;99.90;;;;;;10350172;28;20024;-53
2021/05/25 14:27:37;;;;;;;;;;;13.10;99.90;;;;;;10346934;28;19933;-53
2021/05/25 14:32:37;;;;;;;;;;;13.60;99.90;;;;;;10346402;28;19952;-50
2021/05/25 14:37:38;;;;;;;;;;;13.70;99.90;;;;;;10350535;28;19925;-50
2021/05/25 14:42:39;;;;;;;;;;;13.70;99.90;;;;;;10346570;28;20636;-53
2021/05/25 14:47:40;;;;;;;;;;;13.50;99.90;;;;;;10347350;28;19921;-50
2021/05/25 14:52:40;;;;;;;;;;;13.40;99.90;;;;;;10350556;28;20348;-52
2021/05/25 14:57:41;;;;;;;;;;;13.10;99.90;;;;;;10346630;28;20168;-53
2021/05/25 15:02:53;;;;;;;;;;;13.00;99.90;;;;;;10343695;28;20325;-53
2021/05/25 15:07:56;;;;;;;;;;;13.00;99.90;;;;;;10348107;28;19921;-50
2021/05/25 15:12:56;;;;;;;;;;;13.10;99.90;;;;;;10349890;28;19969;-50
2021/05/25 15:17:57;;;;;;;;;;;13.30;99.90;;;;;;10348203;28;20020;-50
2021/05/25 15:22:57;;;;;;;;;;;13.60;99.90;;;;;;10349615;28;19936;-50
2021/05/25 15:27:58;;;;;;;;;;;13.90;99.90;;;;;;10350633;28;19917;-50
2021/05/25 15:32:59;;;;;;;;;;;14.00;99.90;;;;;;10351662;28;20363;-50
2021/05/25 15:38:02;;;;;;;;;;;13.90;99.90;;;;;;10352585;28;19932;-50
2021/05/25 15:43:04;;;;;;;;;;;13.60;99.90;;;;;;10356430;28;20292;-50
2021/05/25 15:48:06;;;;;;;;;;;13.10;99.90;;;;;;10346419;28;20380;-50
2021/05/25 15:53:08;;;;;;;;;;;13.00;99.90;;;;;;10343463;28;19925;-50
2021/05/25 15:58:09;;;;;;;;;;;12.80;99.90;;;;;;10348196;28;20331;-50
2021/05/25 16:03:10;;;;;;;;;;;12.90;99.90;;;;;;10346062;28;19926;-50
2021/05/25 16:08:12;;;;;;;;;;;13.00;99.90;;;;;;10351213;28;19971;-50
2021/05/25 16:13:12;;;;;;;;;;;13.00;99.90;;;;;;10356808;28;20422;-50
2021/05/25 16:18:13;;;;;;;;;;;12.90;99.90;;;;;;10356320;28;20011;-50
2021/05/25 16:23:14;;;;;;;;;;;12.80;99.90;;;;;;10346792;28;19933;-51
2021/05/25 16:28:15;;;;;;;;;;;13.00;99.90;;;;;;10354821;28;19924;-50
2021/05/25 16:33:16;;;;;;;;;;;13.00;99.90;;;;;;10357535;28;20298;-50
2021/05/25 16:38:16;;;;;;;;;;;13.00;99.90;;;;;;10353809;28;19983;-50
2021/05/25 16:43:17;;;;;;;;;;;13.00;99.90;;;;;;10351613;28;20093;-50
2021/05/25 16:48:18;;;;;;;;;;;13.00;99.90;;;;;;10353416;28;19925;-51
2021/05/25 16:53:18;;;;;;;;;;;13.00;99.90;;;;;;10354485;28;19921;-51
2021/05/25 16:58:23;;;;;;;;;;;13.00;99.90;;;;;;10353724;28;19929;-50
2021/05/25 17:03:39;;;;;;;;;;;13.10;99.90;;;;;;10349443;28;20929;-50
2021/05/25 17:14:27;;;;;;;;;;;12.90;99.90;;;;;;10353003;28;20695;-50
2021/05/25 17:19:10;;;;;;;;;;;12.70;99.90;;;;;;10348049;28;19971;-50
2021/05/25 17:24:13;;;;;;;;;;;12.50;99.90;;;;;;10354049;28;19947;-50
2021/05/25 17:29:15;;;;;;;;;;;12.50;99.90;;;;;;10351026;28;19940;-51
2021/05/25 17:34:15;;;;;;;;;;;12.40;99.90;;;;;;10351481;28;19965;-50
2021/05/25 17:39:16;;;;;;;;;;;12.20;99.90;;;;;;10348468;28;19933;-51
2021/05/25 17:44:17;;;;;;;;;;;12.00;99.90;;;;;;10342719;28;19922;-51
2021/05/25 17:49:20;;;;;;;;;;;11.90;99.90;;;;;;10344765;28;19918;-51
2021/05/25 17:54:21;;;;;;;;;;;11.70;99.90;;;;;;10343458;28;20052;-51
2021/05/25 17:59:21;;;;;;;;;;;11.60;99.90;;;;;;10342066;28;20591;-50
2021/05/25 18:04:22;;;;;;;;;;;11.60;99.90;;;;;;10345871;28;19967;-51
2021/05/25 18:09:22;;;;;;;;;;;11.70;99.90;;;;;;10341795;28;19921;-51
2021/05/25 18:14:23;;;;;;;;;;;11.60;99.90;;;;;;10344443;28;19921;-51
2021/05/25 18:19:26;;;;;;;;;;;11.60;99.90;;;;;;10348892;28;20443;-51
2021/05/25 18:24:27;;;;;;;;;;;11.60;99.90;;;;;;10346137;28;19937;-50
2021/05/25 18:29:27;;;;;;;;;;;11.50;99.90;;;;;;10338010;28;19917;-50
2021/05/25 18:34:35;;;;;;;;;;;11.50;99.90;;;;;;10337159;28;19928;-50
2021/05/25 18:40:22;;;;;;;;;;;11.50;99.90;;;;;;10345801;28;19925;-51
2021/05/25 18:45:00;;;;;;;;;;;11.40;99.90;;;;;;10344085;28;19926;-50
2021/05/25 18:50:03;;;;;;;;;;;11.40;99.90;;;;;;10337991;28;20696;-51
2021/05/25 18:55:05;;;;;;;;;;;11.20;99.90;;;;;;10342503;28;19918;-50
2021/05/25 19:00:07;;;;;;;;;;;11.10;99.90;;;;;;10344293;28;19975;-50
2021/05/25 19:05:12;;;;;;;;;;;11.10;99.90;;;;;;10346799;28;20387;-50
2021/05/25 19:10:13;;;;;;;;;;;10.90;99.90;;;;;;10352091;28;19929;-50
2021/05/25 19:15:14;;;;;;;;;;;10.80;99.90;;;;;;10348834;28;19921;-50
2021/05/25 19:25:23;;;;;;;;;;;10.70;99.90;;;;;;10341861;28;20467;-52
2021/05/25 19:30:24;;;;;;;;;;;10.60;99.90;;;;;;10351369;28;19928;-53
2021/05/25 19:35:25;;;;;;;;;;;10.70;99.90;;;;;;10348576;28;19922;-52
2021/05/25 19:40:26;;;;;;;;;;;10.60;99.90;;;;;;10347812;28;19932;-52
2021/05/25 19:45:27;;;;;;;;;;;10.70;99.90;;;;;;10350313;28;19979;-50
2021/05/25 19:50:27;;;;;;;;;;;10.60;99.90;;;;;;10353502;28;19940;-50
2021/05/25 19:55:28;;;;;;;;;;;10.60;99.90;;;;;;10357350;28;20018;-51
2021/05/25 20:00:28;;;;;;;;;;;10.50;99.90;;;;;;10357244;28;20023;-50
2021/05/25 20:05:30;;;;;;;;;;;10.60;99.90;;;;;;10351929;28;20320;-50
2021/05/25 20:10:31;;;;;;;;;;;10.50;99.90;;;;;;10351282;28;19921;-50
2021/05/25 20:15:32;;;;;;;;;;;10.50;99.90;;;;;;10352438;28;19917;-51
2021/05/25 20:20:33;;;;;;;;;;;10.60;99.90;;;;;;10348730;28;19933;-50
2021/05/25 20:25:33;;;;;;;;;;;10.50;99.90;;;;;;10360904;28;20253;-51
2021/05/25 20:30:34;;;;;;;;;;;10.40;99.90;;;;;;10357448;28;19917;-50
2021/05/25 20:40:54;;;;;;;;;;;10.40;99.90;;;;;;10362132;28;20257;-50
2021/05/25 20:45:55;;;;;;;;;;;10.30;99.90;;;;;;10361075;28;20403;-50
2021/05/25 20:50:55;;;;;;;;;;;10.20;99.90;;;;;;10362582;28;20223;-50
2021/05/25 20:55:59;;;;;;;;;;;10.10;99.90;;;;;;10365579;28;19926;-50
2021/05/25 21:00:59;;;;;;;;;;;10.10;99.90;;;;;;10366284;28;20040;-51
2021/05/25 21:06:00;;;;;;;;;;;10.10;99.90;;;;;;10360834;28;19917;-51
2021/05/25 21:11:01;;;;;;;;;;;10.20;99.90;;;;;;10362469;28;19914;-50
2021/05/25 21:16:01;;;;;;;;;;;10.20;99.90;;;;;;10358262;28;19932;-50
2021/05/25 21:21:02;;;;;;;;;;;10.20;99.90;;;;;;10355037;28;19976;-50
2021/05/25 21:26:04;;;;;;;;;;;10.30;99.90;;;;;;10356799;28;20269;-50
2021/05/25 21:31:05;;;;;;;;;;;10.20;99.90;;;;;;10362657;28;19932;-50
2021/05/25 21:36:07;;;;;;;;;;;10.20;99.90;;;;;;10359753;28;20221;-50
2021/05/25 21:41:08;;;;;;;;;;;10.20;99.90;;;;;;10358111;28;20008;-50
2021/05/25 21:46:09;;;;;;;;;;;10.30;99.90;;;;;;10359317;28;20507;-50
2021/05/25 21:51:10;;;;;;;;;;;10.40;99.90;;;;;;10357241;28;19923;-50
2021/05/25 21:56:11;;;;;;;;;;;10.30;99.90;;;;;;10358546;28;19931;-50
2021/05/25 22:01:11;;;;;;;;;;;10.30;99.90;;;;;;10360911;28;20295;-51
2021/05/25 22:06:12;;;;;;;;;;;10.30;99.90;;;;;;10349793;28;19922;-50
2021/05/25 22:11:12;;;;;;;;;;;10.30;99.90;;;;;;10348786;28;19921;-50
2021/05/25 22:16:13;;;;;;;;;;;10.30;99.90;;;;;;10348549;28;19924;-51
2021/05/25 22:21:14;;;;;;;;;;;10.20;99.90;;;;;;10340131;28;19929;-51
2021/05/25 22:26:14;;;;;;;;;;;10.10;99.90;;;;;;10353619;28;19921;-50
2021/05/25 22:31:15;;;;;;;;;;;10.10;99.90;;;;;;10350688;28;20440;-50
2021/05/25 22:36:16;;;;;;;;;;;10.00;99.90;;;;;;10347978;28;19948;-50
2021/05/25 22:41:16;;;;;;;;;;;10.00;99.90;;;;;;10353240;28;20265;-50
2021/05/25 22:46:17;;;;;;;;;;;9.90;99.90;;;;;;10350019;28;20404;-50
2021/05/25 22:51:18;;;;;;;;;;;9.90;99.90;;;;;;10350276;28;20523;-50
2021/05/25 22:56:18;;;;;;;;;;;9.90;99.90;;;;;;10348564;28;20424;-50
2021/05/25 23:01:24;;;;;;;;;;;9.90;99.90;;;;;;10352569;28;19932;-50
2021/05/25 23:06:24;;;;;;;;;;;9.80;99.90;;;;;;10354393;28;19961;-50
2021/05/25 23:11:25;;;;;;;;;;;9.70;99.90;;;;;;10349726;28;19917;-50
2021/05/25 23:16:26;;;;;;;;;;;9.70;99.90;;;;;;10345865;28;20028;-50
2021/05/25 23:21:27;;;;;;;;;;;9.80;99.90;;;;;;10343990;28;19929;-50
2021/05/25 23:26:27;;;;;;;;;;;9.70;99.90;;;;;;10349176;28;19948;-50
2021/05/25 23:31:29;;;;;;;;;;;9.60;99.90;;;;;;10350614;28;19918;-50
2021/05/25 23:36:30;;;;;;;;;;;9.60;99.90;;;;;;10351135;28;20327;-50
2021/05/25 23:41:31;;;;;;;;;;;9.60;99.90;;;;;;10351817;28;19918;-50
2021/05/25 23:46:31;;;;;;;;;;;9.60;99.90;;;;;;10346349;28;19921;-49
2021/05/25 23:51:32;;;;;;;;;;;9.70;99.90;;;;;;10349915;28;19922;-50
2021/05/25 23:56:33;;;;;;;;;;;9.70;99.90;;;;;;10355129;28;20717;-50
